createdAt,value
2018-04-01T00:01:33.168Z,11.80
2018-04-01T00:04:00.276Z,11.10
2018-04-01T00:06:27.332Z,12.33
2018-04-01T00:08:54.320Z,12.13
2018-04-01T00:11:21.328Z,13.27
2018-04-01T00:13:48.323Z,14.67
2018-04-01T00:16:16.078Z,12.27
2018-04-01T00:18:43.854Z,13.50
2018-04-01T00:21:11.604Z,13.17
2018-04-01T00:23:39.390Z,13.77
2018-04-01T00:26:06.393Z,13.30
2018-04-01T00:28:33.395Z,15.17
2018-04-01T00:31:00.383Z,14.43
2018-04-01T00:33:27.385Z,15.50
2018-04-01T00:35:54.392Z,17.07
2018-04-01T00:38:25.167Z,16.97
2018-04-01T00:40:52.171Z,16.03
2018-04-01T00:43:19.992Z,17.73
2018-04-01T00:45:46.975Z,16.23
2018-04-01T00:48:14.755Z,17.47
2018-04-01T00:50:42.492Z,16.93
2018-04-01T00:53:09.489Z,16.57
2018-04-01T00:55:36.463Z,17.30
2018-04-01T00:58:03.444Z,16.23
2018-04-01T01:00:30.431Z,17.20
2018-04-01T01:02:57.405Z,16.23
2018-04-01T01:05:24.395Z,17.00
2018-04-01T01:07:51.376Z,17.43
2018-04-01T01:10:18.375Z,17.87
2018-04-01T01:12:45.353Z,18.50
2018-04-01T01:15:12.347Z,19.50
2018-04-01T01:17:40.091Z,20.17
2018-04-01T01:20:07.096Z,19.93
2018-04-01T01:22:34.079Z,19.47
2018-04-01T01:25:01.068Z,20.90
2018-04-01T01:27:28.056Z,21.67
2018-04-01T01:29:55.056Z,21.73
2018-04-01T01:32:22.090Z,20.50
2018-04-01T01:34:49.831Z,23.43
2018-04-01T01:37:16.812Z,22.63
2018-04-01T01:39:43.815Z,23.20
2018-04-01T01:42:10.864Z,22.23
2018-04-01T01:44:37.886Z,21.63
2018-04-01T01:47:04.874Z,19.67
2018-04-01T01:49:32.630Z,20.37
2018-04-01T01:51:59.630Z,19.53
2018-04-01T01:54:26.699Z,19.93
2018-04-01T01:56:53.683Z,19.97
2018-04-01T01:59:20.656Z,22.80
2018-04-01T02:01:47.650Z,20.03
2018-04-01T02:04:15.413Z,21.43
2018-04-01T02:06:43.415Z,20.63
2018-04-01T02:09:10.393Z,20.33
2018-04-01T02:11:37.415Z,21.67
2018-04-01T02:14:04.425Z,20.10
2018-04-01T02:16:32.162Z,20.27
2018-04-01T02:18:59.153Z,22.13
2018-04-01T02:21:26.151Z,20.70
2018-04-01T02:23:53.202Z,20.37
2018-04-01T02:26:20.180Z,21.43
2018-04-01T02:28:47.170Z,20.17
2018-04-01T02:31:14.230Z,21.00
2018-04-01T02:33:41.991Z,20.97
2018-04-01T02:36:08.987Z,20.93
2018-04-01T02:38:35.987Z,19.73
2018-04-01T02:41:03.726Z,20.47
2018-04-01T02:43:32.190Z,20.27
2018-04-01T02:45:59.160Z,18.90
2018-04-01T02:48:26.158Z,18.73
2018-04-01T02:50:53.152Z,19.77
2018-04-01T02:53:20.167Z,19.40
2018-04-01T02:55:47.234Z,21.40
2018-04-01T02:58:14.228Z,19.23
2018-04-01T03:00:41.210Z,21.10
2018-04-01T03:03:08.204Z,20.67
2018-04-01T03:05:35.961Z,19.20
2018-04-01T03:08:03.732Z,19.83
2018-04-01T03:10:31.514Z,17.23
2018-04-01T03:12:58.496Z,19.97
2018-04-01T03:15:25.462Z,19.30
2018-04-01T03:17:53.215Z,18.60
2018-04-01T03:20:20.224Z,18.60
2018-04-01T03:22:47.208Z,19.20
2018-04-01T03:25:14.204Z,19.00
2018-04-01T03:27:41.193Z,17.13
2018-04-01T03:30:08.207Z,18.60
2018-04-01T03:32:35.198Z,18.40
2018-04-01T03:35:02.969Z,18.43
2018-04-01T03:37:30.804Z,18.03
2018-04-01T03:39:57.829Z,18.83
2018-04-01T03:42:24.836Z,17.53
2018-04-01T03:44:51.822Z,17.63
2018-04-01T03:47:18.827Z,17.27
2018-04-01T03:49:45.819Z,17.20
2018-04-01T03:52:12.811Z,15.30
2018-04-01T03:54:40.568Z,15.10
2018-04-01T03:57:08.376Z,13.27
2018-04-01T03:59:35.412Z,13.27
2018-04-01T04:02:02.397Z,13.57
2018-04-01T04:04:29.494Z,13.73
2018-04-01T04:06:56.477Z,12.70
2018-04-01T04:09:23.518Z,13.27
2018-04-01T04:11:50.504Z,12.93
2018-04-01T04:14:17.595Z,12.93
2018-04-01T04:16:44.621Z,11.93
2018-04-01T04:19:11.657Z,11.53
2018-04-01T04:21:38.647Z,10.90
2018-04-01T04:24:05.651Z,11.30
2018-04-01T04:26:32.657Z,8.87
2018-04-01T04:28:59.641Z,8.73
2018-04-01T04:31:26.627Z,7.80
2018-04-01T04:33:53.669Z,8.00
2018-04-01T04:36:20.668Z,9.00
2018-04-01T04:38:48.348Z,9.07
2018-04-01T04:41:15.410Z,8.97
2018-04-01T04:43:42.396Z,8.97
2018-04-01T04:46:10.149Z,8.43
2018-04-01T04:48:37.146Z,7.37
2018-04-01T04:51:04.148Z,7.63
2018-04-01T04:53:31.960Z,8.93
2018-04-01T04:55:58.975Z,8.17
2018-04-01T04:58:26.114Z,6.97
2018-04-01T05:00:53.911Z,7.60
2018-04-01T05:03:20.938Z,7.73
2018-04-01T05:05:47.924Z,7.83
2018-04-01T05:08:15.093Z,8.10
2018-04-01T05:10:42.104Z,7.97
2018-04-01T05:13:10.904Z,7.73
2018-04-01T05:15:37.938Z,7.93
2018-04-01T05:18:04.935Z,8.23
2018-04-01T05:20:32.684Z,7.93
2018-04-01T05:23:02.541Z,7.73
2018-04-01T05:25:29.563Z,8.77
2018-04-01T05:27:56.552Z,8.67
2018-04-01T05:30:23.556Z,8.87
2018-04-01T05:32:50.581Z,8.30
2018-04-01T05:35:18.404Z,9.03
2018-04-01T05:37:45.419Z,8.10
2018-04-01T05:40:12.541Z,8.13
2018-04-01T05:42:40.313Z,9.50
2018-04-01T05:45:08.054Z,9.00
2018-04-01T05:47:35.028Z,9.27
2018-04-01T05:50:02.031Z,13.27
2018-04-01T05:52:28.996Z,12.77
2018-04-01T05:54:56.850Z,9.63
2018-04-01T05:57:23.938Z,9.80
2018-04-01T05:59:51.016Z,10.57
2018-04-01T06:02:18.089Z,10.53
2018-04-01T06:04:45.101Z,10.30
2018-04-01T06:07:12.121Z,10.73
2018-04-01T06:09:39.392Z,11.43
2018-04-01T06:12:06.520Z,9.73
2018-04-01T06:14:33.580Z,13.07
2018-04-01T06:17:00.604Z,10.20
2018-04-01T06:19:27.669Z,8.80
2018-04-01T06:21:54.936Z,8.63
2018-04-01T06:24:21.915Z,8.40
2018-04-01T06:26:49.865Z,7.37
2018-04-01T06:29:16.931Z,5.87
2018-04-01T06:31:44.930Z,3.73
2018-04-01T06:34:12.117Z,3.30
2018-04-01T06:36:39.215Z,2.87
2018-04-01T06:39:06.199Z,2.60
2018-04-01T06:41:33.183Z,2.20
2018-04-01T06:44:00.942Z,2.73
2018-04-01T06:46:29.443Z,3.03
2018-04-01T06:48:57.183Z,3.30
2018-04-01T06:51:24.393Z,3.10
2018-04-01T06:53:52.449Z,3.37
2018-04-01T06:56:19.547Z,3.20
2018-04-01T06:58:46.612Z,3.40
2018-04-01T07:01:14.609Z,3.73
2018-04-01T07:03:41.634Z,3.90
2018-04-01T07:06:08.610Z,3.00
2018-04-01T07:08:35.620Z,3.80
2018-04-01T07:11:03.480Z,3.70
2018-04-01T07:13:30.579Z,3.47
2018-04-01T07:15:58.233Z,2.97
2018-04-01T07:18:25.393Z,3.80
2018-04-01T07:20:52.574Z,3.83
2018-04-01T07:23:20.323Z,4.07
2018-04-01T07:25:47.704Z,4.37
2018-04-01T07:28:14.704Z,5.13
2018-04-01T07:30:41.689Z,4.93
2018-04-01T07:33:09.437Z,4.33
2018-04-01T07:35:37.235Z,4.90
2018-04-01T07:38:04.240Z,4.77
2018-04-01T07:40:31.269Z,4.90
2018-04-01T07:42:58.274Z,6.67
2018-04-01T07:45:25.277Z,6.23
2018-04-01T07:47:52.251Z,6.63
2018-04-01T07:50:19.297Z,6.50
2018-04-01T07:52:46.297Z,6.93
2018-04-01T07:55:14.052Z,8.07
2018-04-01T07:57:41.060Z,8.13
2018-04-01T08:00:08.043Z,8.90
2018-04-01T08:02:35.022Z,9.57
2018-04-01T08:05:02.780Z,10.03
2018-04-01T08:07:30.545Z,10.73
2018-04-01T08:09:58.290Z,10.50
2018-04-01T08:12:25.311Z,11.13
2018-04-01T08:14:52.299Z,11.47
2018-04-01T08:17:19.295Z,11.67
2018-04-01T08:19:46.277Z,12.30
2018-04-01T08:22:14.036Z,13.30
2018-04-01T08:24:41.028Z,11.93
2018-04-01T08:27:08.008Z,14.53
2018-04-01T08:29:35.019Z,13.83
2018-04-01T08:32:02.021Z,15.07
2018-04-01T08:34:29.782Z,15.87
2018-04-01T08:36:57.544Z,16.50
2018-04-01T08:39:25.300Z,15.17
2018-04-01T08:41:52.325Z,15.93
2018-04-01T08:44:19.388Z,17.03
2018-04-01T08:46:47.884Z,18.50
2018-04-01T08:49:15.635Z,17.73
2018-04-01T08:51:42.641Z,17.83
2018-04-01T08:54:09.644Z,17.60
2018-04-01T08:56:37.395Z,17.33
2018-04-01T08:59:05.190Z,16.80
2018-04-01T09:01:32.176Z,15.37
2018-04-01T09:03:59.165Z,13.47
2018-04-01T09:06:26.151Z,14.93
2018-04-01T09:08:53.205Z,12.30
2018-04-01T09:11:20.188Z,10.13
2018-04-01T09:13:47.944Z,10.07
2018-04-01T09:16:15.711Z,9.07
2018-04-01T09:18:43.480Z,9.73
2018-04-01T09:21:11.338Z,9.40
2018-04-01T09:23:38.417Z,10.00
2018-04-01T09:26:05.398Z,10.13
2018-04-01T09:28:32.388Z,11.40
2018-04-01T09:30:59.583Z,10.57
2018-04-01T09:33:28.504Z,12.57
2018-04-01T09:35:55.506Z,12.00
2018-04-01T09:38:22.728Z,12.90
2018-04-01T09:40:49.755Z,13.37
2018-04-01T09:43:17.569Z,13.80
2018-04-01T09:45:44.615Z,14.50
2018-04-01T09:48:11.629Z,15.17
2018-04-01T09:50:38.643Z,15.30
2018-04-01T09:53:06.398Z,15.83
2018-04-01T09:55:33.419Z,15.37
2018-04-01T09:58:00.411Z,15.80
2018-04-01T10:00:28.171Z,17.47
2018-04-01T10:02:56.442Z,17.07
2018-04-01T10:05:24.715Z,16.73
2018-04-01T10:07:52.555Z,17.53
2018-04-01T10:10:20.167Z,17.50
2018-04-01T10:12:47.630Z,19.20
2018-04-01T10:15:15.118Z,18.20
2018-04-01T10:17:42.631Z,19.17
2018-04-01T10:20:10.298Z,19.60
2018-04-01T10:22:38.522Z,18.70
2018-04-01T10:25:06.774Z,18.30
2018-04-01T10:27:34.255Z,19.10
2018-04-01T10:30:01.757Z,20.50
2018-04-01T10:32:29.300Z,19.20
2018-04-01T10:34:56.875Z,19.03
2018-04-01T10:37:24.354Z,19.77
2018-04-01T10:39:51.853Z,19.77
2018-04-01T10:42:20.103Z,19.87
2018-04-01T10:44:47.626Z,19.93
2018-04-01T10:47:15.189Z,21.00
2018-04-01T10:49:42.906Z,20.87
2018-04-01T10:52:11.185Z,20.37
2018-04-01T10:54:39.093Z,20.43
2018-04-01T10:57:06.294Z,19.77
2018-04-01T10:59:34.247Z,19.87
2018-04-01T11:02:02.015Z,18.47
2018-04-01T11:04:29.043Z,20.30
2018-04-01T11:06:56.051Z,18.87
2018-04-01T11:09:23.042Z,19.83
2018-04-01T11:11:50.106Z,19.83
2018-04-01T11:14:17.890Z,18.87
2018-04-01T11:16:44.930Z,17.47
2018-04-01T11:19:11.922Z,17.67
2018-04-01T11:21:38.935Z,17.27
2018-04-01T11:24:05.981Z,17.47
2018-04-01T11:26:32.943Z,16.53
2018-04-01T11:28:59.936Z,15.93
2018-04-01T11:31:27.692Z,15.77
2018-04-01T11:33:54.769Z,15.23
2018-04-01T11:36:21.763Z,15.23
2018-04-01T11:38:48.739Z,15.63
2018-04-01T11:41:16.539Z,15.30
2018-04-01T11:43:43.520Z,15.00
2018-04-01T11:46:10.529Z,15.67
2018-04-01T11:48:37.517Z,15.87
2018-04-01T11:51:04.507Z,16.43
2018-04-01T11:53:31.502Z,15.40
2018-04-01T11:55:58.503Z,13.50
2018-04-01T11:58:25.503Z,14.37
2018-04-01T12:00:52.689Z,11.03
2018-04-01T12:03:19.700Z,12.10
2018-04-01T12:05:47.596Z,11.27
2018-04-01T12:08:14.586Z,12.23
2018-04-01T12:10:41.625Z,11.80
2018-04-01T12:13:08.660Z,12.23
2018-04-01T12:15:35.640Z,11.90
2018-04-01T12:18:02.637Z,11.47
2018-04-01T12:20:29.636Z,11.80
2018-04-01T12:22:57.761Z,11.53
2018-04-01T12:25:24.750Z,12.07
2018-04-01T12:27:52.520Z,12.03
2018-04-01T12:30:20.272Z,11.90
2018-04-01T12:32:48.051Z,12.70
2018-04-01T12:35:15.787Z,12.93
2018-04-01T12:37:42.774Z,12.27
2018-04-01T12:40:09.781Z,11.77
2018-04-01T12:42:36.779Z,12.20
2018-04-01T12:45:03.774Z,11.90
2018-04-01T12:47:30.841Z,13.30
2018-04-01T12:49:58.648Z,13.70
2018-04-01T12:52:25.635Z,14.87
2018-04-01T12:54:53.403Z,16.47
2018-04-01T12:57:21.135Z,17.20
2018-04-01T12:59:48.172Z,16.47
2018-04-01T13:02:15.165Z,16.10
2018-04-01T13:04:42.938Z,16.67
2018-04-01T13:07:09.933Z,16.17
2018-04-01T13:09:36.953Z,17.03
2018-04-01T13:12:03.948Z,16.90
2018-04-01T13:14:31.723Z,15.90
2018-04-01T13:16:59.475Z,17.50
2018-04-01T13:19:27.275Z,16.00
2018-04-01T13:21:54.296Z,17.37
2018-04-01T13:24:21.326Z,16.37
2018-04-01T13:26:49.179Z,16.00
2018-04-01T13:29:16.197Z,17.00
2018-04-01T13:31:43.184Z,18.07
2018-04-01T13:34:10.954Z,17.23
2018-04-01T13:36:38.700Z,17.93
2018-04-01T13:39:06.473Z,17.13
2018-04-01T13:44:07.765Z,18.33
2018-04-01T13:46:34.748Z,19.40
2018-04-01T13:49:01.785Z,20.40
2018-04-01T13:51:28.780Z,19.63
2018-04-01T13:53:55.807Z,21.03
2018-04-01T13:56:22.828Z,22.43
2018-04-01T13:58:49.866Z,23.40
2018-04-01T14:01:17.028Z,24.53
2018-04-01T14:03:44.002Z,24.40
2018-04-01T14:06:11.763Z,24.10
2018-04-01T14:08:39.521Z,23.67
2018-04-01T14:11:07.315Z,25.13
2018-04-01T14:13:34.288Z,24.10
2018-04-01T14:16:01.299Z,23.60
2018-04-01T14:18:28.302Z,25.27
2018-04-01T14:20:55.309Z,24.20
2018-04-01T14:23:22.341Z,24.63
2018-04-01T14:25:49.340Z,25.03
2018-04-01T14:28:17.114Z,25.83
2018-04-01T14:30:44.902Z,27.87
2018-04-01T14:33:11.904Z,27.07
2018-04-01T14:35:38.894Z,27.00
2018-04-01T14:38:05.893Z,31.53
2018-04-01T14:40:32.941Z,30.83
2018-04-01T14:42:59.942Z,31.53
2018-04-01T14:45:26.935Z,32.03
2018-04-01T14:47:53.993Z,32.73
2018-04-01T14:50:21.902Z,31.83
2018-04-01T14:52:48.895Z,31.63
2018-04-01T14:55:15.891Z,33.33
2018-04-01T14:57:42.952Z,31.80
2018-04-01T15:00:09.942Z,29.83
2018-04-01T15:02:37.754Z,28.83
2018-04-01T15:05:04.753Z,30.47
2018-04-01T15:07:32.684Z,25.67
2018-04-01T15:09:59.695Z,26.60
2018-04-01T15:12:26.693Z,26.00
2018-04-01T15:14:54.905Z,28.70
2018-04-01T15:17:21.935Z,27.43
2018-04-01T15:19:48.966Z,26.17
2018-04-01T15:22:16.813Z,26.73
2018-04-01T15:24:43.843Z,28.57
2018-04-01T15:27:10.842Z,31.87
2018-04-01T15:29:37.916Z,25.23
2018-04-01T15:32:04.919Z,25.47
2018-04-01T15:34:32.690Z,23.57
2018-04-01T15:37:00.448Z,20.00
2018-04-01T15:39:28.275Z,14.97
2018-04-01T15:41:55.288Z,9.70
2018-04-01T15:44:22.276Z,7.57
2018-04-01T15:46:49.314Z,7.93
2018-04-01T15:49:16.300Z,8.00
2018-04-01T15:51:43.289Z,8.03
2018-04-01T15:54:10.271Z,8.33
2018-04-01T15:56:38.054Z,8.10
2018-04-01T15:59:05.063Z,9.53
2018-04-01T16:01:32.102Z,9.87
2018-04-01T16:03:59.094Z,10.13
2018-04-01T16:06:26.113Z,10.17
2018-04-01T16:08:54.066Z,10.70
2018-04-01T16:11:21.126Z,11.33
2018-04-01T16:13:48.350Z,12.60
2018-04-01T16:16:16.156Z,13.33
2018-04-01T16:18:44.154Z,13.30
2018-04-01T16:21:11.458Z,14.90
2018-04-01T16:23:38.632Z,14.53
2018-04-01T16:26:05.666Z,15.93
2018-04-01T16:28:32.734Z,14.43
2018-04-01T16:30:59.749Z,15.67
2018-04-01T16:33:27.563Z,17.17
2018-04-01T16:35:54.577Z,15.80
2018-04-01T16:38:21.571Z,15.07
2018-04-01T16:40:48.582Z,16.57
2018-04-01T16:43:15.571Z,16.63
2018-04-01T16:45:42.632Z,15.57
2018-04-01T16:48:09.781Z,18.70
2018-04-01T16:50:37.551Z,16.00
2018-04-01T16:53:05.403Z,17.50
2018-04-01T16:55:32.493Z,16.90
2018-04-01T16:57:59.563Z,15.93
2018-04-01T17:00:26.686Z,17.13
2018-04-01T17:02:53.736Z,18.23
2018-04-01T17:05:20.738Z,17.33
2018-04-01T17:07:48.664Z,18.23
2018-04-01T17:10:15.690Z,17.40
2018-04-01T17:12:42.691Z,15.53
2018-04-01T17:15:09.854Z,17.07
2018-04-01T17:17:36.855Z,16.90
2018-04-01T17:20:04.575Z,17.37
2018-04-01T17:22:31.699Z,16.53
2018-04-01T17:24:59.465Z,18.50
2018-04-01T17:27:27.289Z,18.27
2018-04-01T17:29:54.374Z,19.37
2018-04-01T17:32:21.427Z,21.17
2018-04-01T17:34:49.239Z,21.60
2018-04-01T17:37:16.257Z,21.03
2018-04-01T17:39:43.295Z,20.83
2018-04-01T17:42:10.306Z,21.23
2018-04-01T17:44:37.394Z,21.30
2018-04-01T17:47:04.724Z,21.00
2018-04-01T17:49:32.571Z,20.23
2018-04-01T17:51:59.592Z,25.40
2018-04-01T17:54:26.607Z,24.50
2018-04-01T17:56:53.595Z,21.80
2018-04-01T17:59:20.604Z,22.80
2018-04-01T18:01:47.637Z,21.40
2018-04-01T18:04:14.642Z,23.50
2018-04-01T18:06:41.669Z,22.50
2018-04-01T18:09:08.653Z,21.53
2018-04-01T18:11:36.443Z,21.70
2018-04-01T18:14:03.876Z,21.17
2018-04-01T18:16:31.767Z,20.30
2018-04-01T18:18:58.875Z,20.83
2018-04-01T18:21:26.649Z,20.73
2018-04-01T18:23:54.549Z,22.00
2018-04-01T18:26:21.693Z,21.10
2018-04-01T18:28:48.742Z,21.50
2018-04-01T18:31:15.863Z,21.17
2018-04-01T18:33:42.953Z,19.67
2018-04-01T18:36:10.112Z,20.30
2018-04-01T18:38:37.137Z,20.53
2018-04-01T18:41:04.184Z,19.37
2018-04-01T18:43:31.530Z,18.83
2018-04-01T18:45:58.788Z,22.60
2018-04-01T18:48:25.836Z,19.03
2018-04-01T18:50:52.862Z,23.10
2018-04-01T18:53:19.876Z,19.50
2018-04-01T18:55:47.642Z,19.57
2018-04-01T18:58:15.402Z,21.40
2018-04-01T19:00:43.162Z,20.03
2018-04-01T19:03:10.924Z,20.73
2018-04-01T19:05:38.691Z,20.53
2018-04-01T19:08:06.473Z,22.10
2018-04-01T19:10:33.476Z,20.20
2018-04-01T19:13:00.476Z,20.17
2018-04-01T19:15:27.461Z,20.50
2018-04-01T19:17:54.947Z,21.80
2018-04-01T19:20:23.194Z,21.43
2018-04-01T19:22:50.710Z,22.67
2018-04-01T19:25:18.190Z,22.60
2018-04-01T19:27:45.709Z,22.57
2018-04-01T19:30:13.203Z,22.50
2018-04-01T19:32:40.687Z,22.00
2018-04-01T19:35:08.480Z,22.53
2018-04-01T19:37:35.974Z,25.50
2018-04-01T19:40:04.466Z,24.97
2018-04-01T19:42:31.938Z,23.00
2018-04-01T19:44:59.431Z,25.10
2018-04-01T19:47:26.923Z,24.20
2018-04-01T19:49:54.459Z,25.50
2018-04-01T19:52:21.947Z,25.73
2018-04-01T19:54:49.428Z,25.93
2018-04-01T19:57:16.918Z,26.17
2018-04-01T19:59:44.436Z,28.33
2018-04-01T20:02:11.935Z,26.63
2018-04-01T20:04:39.427Z,29.23
2018-04-01T20:07:06.923Z,26.47
2018-04-01T20:09:34.433Z,26.27
2018-04-01T20:12:01.966Z,26.00
2018-04-01T20:14:29.470Z,26.67
2018-04-01T20:16:58.716Z,26.23
2018-04-01T20:19:26.234Z,26.60
2018-04-01T20:21:53.709Z,26.07
2018-04-01T20:24:22.004Z,28.03
2018-04-01T20:26:49.515Z,27.93
2018-04-01T20:29:17.059Z,27.50
2018-04-01T20:31:44.588Z,27.47
2018-04-01T20:34:12.369Z,28.80
2018-04-01T20:36:39.861Z,27.73
2018-04-01T20:39:08.154Z,28.53
2018-04-01T20:41:36.469Z,28.37
2018-04-01T20:44:04.782Z,28.30
2018-04-01T20:46:32.291Z,31.23
2018-04-01T20:48:59.781Z,29.10
2018-04-01T20:51:27.317Z,32.43
2018-04-01T20:53:54.822Z,29.93
2018-04-01T20:56:23.107Z,31.80
2018-04-01T20:58:51.387Z,32.53
2018-04-01T21:01:19.073Z,33.73
2018-04-01T21:03:46.782Z,33.00
2018-04-01T21:06:14.370Z,33.10
2018-04-01T21:08:41.953Z,33.73
2018-04-01T21:11:09.503Z,33.40
2018-04-01T21:13:37.262Z,35.33
2018-04-01T21:16:05.492Z,36.47
2018-04-01T21:18:33.036Z,37.80
2018-04-01T21:21:01.364Z,38.83
2018-04-01T21:23:29.115Z,36.77
2018-04-01T21:25:56.639Z,36.80
2018-04-01T21:28:24.199Z,39.00
2018-04-01T21:30:52.520Z,38.83
2018-04-01T21:33:20.086Z,41.17
2018-04-01T21:35:47.596Z,40.83
2018-04-01T21:38:15.974Z,41.47
2018-04-01T21:40:43.464Z,41.70
2018-04-01T21:43:11.011Z,43.03
2018-04-01T21:45:39.298Z,43.73
2018-04-01T21:48:07.003Z,45.47
2018-04-01T21:50:34.499Z,45.53
2018-04-01T21:53:02.883Z,42.97
2018-04-01T21:55:30.473Z,40.57
2018-04-01T21:57:58.071Z,43.17
2018-04-01T22:00:25.604Z,43.17
2018-04-01T22:02:53.098Z,41.80
2018-04-01T22:05:22.059Z,42.23
2018-04-01T22:07:49.681Z,42.10
2018-04-01T22:10:17.201Z,44.70
2018-04-01T22:12:45.562Z,47.73
2018-04-01T22:15:13.070Z,46.50
2018-04-01T22:17:40.599Z,47.07
2018-04-01T22:20:09.004Z,46.97
2018-04-01T22:22:48.309Z,46.87
2018-04-01T22:25:16.631Z,46.83
2018-04-01T22:27:44.119Z,46.43
2018-04-01T22:30:11.629Z,46.57
2018-04-01T22:32:39.180Z,47.87
2018-04-01T22:35:06.748Z,47.87
2018-04-01T22:37:34.254Z,50.57
2018-04-01T22:40:01.763Z,48.03
2018-04-01T22:42:29.404Z,52.30
2018-04-01T22:44:56.967Z,53.80
2018-04-01T22:47:24.635Z,53.70
2018-04-01T22:49:52.293Z,58.27
2018-04-01T22:52:19.813Z,59.00
2018-04-01T22:54:48.095Z,63.20
2018-04-01T22:57:16.365Z,62.87
2018-04-01T22:59:44.798Z,65.83
2018-04-01T23:02:12.389Z,70.63
2018-04-01T23:04:39.889Z,68.10
2018-04-01T23:07:07.741Z,68.17
2018-04-01T23:09:35.251Z,72.40
2018-04-01T23:12:02.808Z,72.67
2018-04-01T23:14:30.312Z,74.40
2018-04-01T23:16:57.821Z,71.87
2018-04-01T23:19:25.372Z,77.87
2018-04-01T23:21:52.906Z,83.17
2018-04-01T23:24:20.509Z,82.50
2018-04-01T23:26:48.823Z,80.00
2018-04-01T23:29:16.314Z,78.60
2018-04-01T23:31:43.854Z,80.40
2018-04-01T23:34:11.358Z,82.63
2018-04-01T23:36:38.931Z,82.83
2018-04-01T23:39:07.179Z,83.63
2018-04-01T23:41:34.772Z,82.40
2018-04-01T23:44:02.268Z,83.63
2018-04-01T23:46:29.777Z,84.73
2018-04-01T23:48:58.068Z,82.37
2018-04-01T23:51:25.683Z,85.17
2018-04-01T23:53:53.202Z,90.40
2018-04-01T23:56:20.732Z,88.00
2018-04-01T23:58:49.169Z,89.63
